Time;durP1;ratioP1;P1;durP2;ratioP2;P2;SDS_P1;SDS_P2;PMS_P1;PMS_P2;Temp;Humidity;BMP_temperature;BMP_pressure;BME280_temperature;BME280_humidity;BME280_pressure;Samples;Min_cycle;Max_cycle;Signal;HPM_P1;HPM_P2
2022/01/15 12:22:46;;;;;;;7.00;2.13;;;14.20;80.50;;;;;;2291524;62;29964;-84
2022/01/15 12:25:17;;;;;;;2.47;2.00;;;14.20;79.60;;;;;;2275512;62;30277;-84
2022/01/15 12:27:47;;;;;;;2.65;1.85;;;14.30;80.40;;;;;;2283065;62;30802;-84
2022/01/15 12:30:15;;;;;;;2.20;1.70;;;14.30;81.20;;;;;;2269636;62;31155;-83
2022/01/15 12:32:47;;;;;;;2.47;2.20;;;14.30;81.90;;;;;;2283300;62;30455;-87
2022/01/15 12:35:15;;;;;;;1.90;1.80;;;14.40;82.50;;;;;;2269278;62;30102;-89
2022/01/15 12:37:56;;;;;;;1.77;1.67;;;14.50;82.80;;;;;;2276107;62;30293;-87
2022/01/15 12:40:29;;;;;;;3.08;1.50;;;14.60;82.50;;;;;;2283208;62;31285;-88
2022/01/15 12:42:56;;;;;;;1.70;1.60;;;14.70;83.00;;;;;;2275688;62;31080;-86
2022/01/15 12:45:22;;;;;;;1.52;1.40;;;14.70;83.30;;;;;;2283098;62;30216;-89
2022/01/15 12:47:48;;;;;;;3.58;1.90;;;14.80;83.40;;;;;;2282796;62;30311;-86
2022/01/15 12:50:14;;;;;;;2.58;2.25;;;14.80;83.40;;;;;;2283040;62;30889;-86
2022/01/15 12:52:40;;;;;;;1.95;1.77;;;14.80;83.30;;;;;;2275575;62;30530;-87
2022/01/15 12:55:07;;;;;;;1.90;1.80;;;14.80;83.30;;;;;;2268659;62;30129;-86
2022/01/15 12:57:46;;;;;;;1.92;1.83;;;14.80;83.40;;;;;;2283033;62;30100;-89
2022/01/15 13:00:29;;;;;;;1.92;1.80;;;14.80;82.90;;;;;;2276124;62;31104;-89
2022/01/15 13:03:00;;;;;;;1.80;1.70;;;14.90;82.30;;;;;;2280195;62;29985;-87
2022/01/15 13:05:28;;;;;;;4.90;1.70;;;14.90;83.00;;;;;;2269062;62;30357;-89
2022/01/15 13:08:00;;;;;;;1.80;1.70;;;14.90;83.00;;;;;;2275573;62;30285;-86
2022/01/15 13:10:29;;;;;;;2.38;1.80;;;15.00;82.90;;;;;;2282773;62;30306;-86
2022/01/15 13:12:55;;;;;;;3.55;1.73;;;15.00;82.70;;;;;;2282970;62;30508;-91
2022/01/15 13:15:27;;;;;;;2.97;1.65;;;15.10;82.50;;;;;;2275452;62;30108;-82
2022/01/15 13:17:56;;;;;;;2.28;1.63;;;15.10;82.20;;;;;;2268251;62;30298;-83
2022/01/15 13:20:32;;;;;;;2.10;1.60;;;15.10;82.30;;;;;;2282460;62;30291;-85
2022/01/15 13:22:58;;;;;;;2.58;1.92;;;15.20;81.80;;;;;;2275114;62;30039;-89
2022/01/15 13:25:26;;;;;;;1.75;1.65;;;15.10;82.10;;;;;;2282615;62;30204;-88
2022/01/15 13:27:53;;;;;;;1.83;1.67;;;15.20;82.10;;;;;;2275480;62;30177;-87
2022/01/15 13:30:19;;;;;;;1.65;1.55;;;15.20;82.10;;;;;;2268376;62;30975;-86
2022/01/15 13:32:54;;;;;;;1.90;1.70;;;15.20;82.00;;;;;;2272898;62;30723;-84
2022/01/15 13:35:23;;;;;;;1.83;1.73;;;15.20;81.70;;;;;;2277559;62;30572;-83
2022/01/15 13:37:51;;;;;;;2.00;1.80;;;15.10;81.90;;;;;;2269768;62;30399;-87
2022/01/15 13:40:51;;;;;;;1.95;1.83;;;15.20;81.90;;;;;;2276550;62;31200;-87
2022/01/15 13:43:28;;;;;;;2.05;1.88;;;15.20;80.50;;;;;;2255379;62;30208;-85
2022/01/15 13:46:07;;;;;;;1.92;1.70;;;15.20;81.10;;;;;;2263173;62;30264;-85
2022/01/15 13:48:33;;;;;;;1.90;1.80;;;15.20;81.00;;;;;;2277298;62;30568;-82
2022/01/15 13:53:44;;;;;;;1.80;1.70;;;15.20;81.30;;;;;;2277304;62;30329;-81
2022/01/15 13:56:16;;;;;;;2.00;1.90;;;15.20;81.20;;;;;;2277098;62;30218;-80
2022/01/15 13:58:42;;;;;;;1.98;1.88;;;15.20;81.20;;;;;;2276898;62;30170;-83
2022/01/15 14:01:25;;;;;;;2.22;2.05;;;15.10;81.20;;;;;;2269676;62;32756;-81
2022/01/15 14:03:51;;;;;;;2.35;2.13;;;15.20;80.70;;;;;;2262953;62;30643;-85
2022/01/15 14:06:17;;;;;;;2.20;2.10;;;15.20;81.00;;;;;;2262835;62;30790;-81
2022/01/15 14:08:43;;;;;;;2.33;1.90;;;15.20;81.00;;;;;;2263119;62;30654;-75
2022/01/15 14:11:17;;;;;;;1.90;1.80;;;15.20;80.90;;;;;;2269942;62;30000;-74
2022/01/15 14:13:43;;;;;;;2.33;2.13;;;15.20;80.70;;;;;;2266159;62;30486;-73
2022/01/15 14:16:25;;;;;;;1.90;1.80;;;15.20;80.80;;;;;;2268956;62;30299;-71
2022/01/15 14:19:00;;;;;;;2.03;1.92;;;15.20;80.30;;;;;;2261566;62;30221;-76
2022/01/15 14:23:58;;;;;;;;;;;15.20;80.80;;;;;;2263918;62;30801;-74
2022/01/15 14:26:28;;;;;;;2.33;2.13;;;15.10;79.70;;;;;;2276838;62;30043;-74
2022/01/15 14:28:55;;;;;;;3.72;2.75;;;15.10;80.90;;;;;;2269826;62;30152;-74
2022/01/15 14:31:22;;;;;;;2.88;2.50;;;15.00;80.90;;;;;;2262983;62;31037;-74
2022/01/15 14:33:49;;;;;;;2.95;2.20;;;15.00;80.80;;;;;;2276483;62;30240;-74
2022/01/15 14:36:15;;;;;;;2.33;2.13;;;15.00;80.90;;;;;;2276427;62;30287;-74
2022/01/15 14:38:41;;;;;;;2.22;2.08;;;15.00;80.90;;;;;;2276712;62;30018;-74
2022/01/15 14:41:09;;;;;;;2.08;1.98;;;15.00;80.80;;;;;;2276367;62;30201;-74
2022/01/15 14:43:35;;;;;;;2.17;2.08;;;15.00;80.80;;;;;;2276397;62;30423;-74
2022/01/15 14:46:02;;;;;;;2.30;2.00;;;15.00;80.70;;;;;;2268973;62;30370;-74
2022/01/15 14:48:35;;;;;;;2.33;2.13;;;15.00;80.70;;;;;;2276187;62;30208;-74
2022/01/15 14:51:03;;;;;;;1.90;1.80;;;15.00;80.70;;;;;;2269336;62;30979;-74
2022/01/15 14:53:29;;;;;;;2.85;2.05;;;15.00;80.60;;;;;;2276103;62;30384;-74
2022/01/15 14:56:00;;;;;;;2.40;2.20;;;15.00;80.60;;;;;;2262514;62;30176;-75
2022/01/15 14:58:26;;;;;;;2.40;2.20;;;15.00;80.60;;;;;;2276747;62;30181;-75
2022/01/15 15:00:53;;;;;;;2.00;1.90;;;15.00;80.60;;;;;;2276850;62;30296;-74
2022/01/15 15:03:18;;;;;;;2.17;2.08;;;14.90;80.70;;;;;;2276552;62;30183;-74
2022/01/15 15:05:44;;;;;;;2.30;2.20;;;14.90;80.60;;;;;;2276860;62;30327;-74
2022/01/15 15:08:10;;;;;;;2.28;2.17;;;14.90;80.60;;;;;;2276819;62;30145;-74
2022/01/15 15:10:36;;;;;;;2.17;2.08;;;14.90;80.50;;;;;;2276689;62;30654;-74
2022/01/15 15:13:03;;;;;;;2.28;2.17;;;14.90;80.50;;;;;;2276834;62;30594;-74
2022/01/15 15:15:28;;;;;;;1.98;1.88;;;14.90;80.50;;;;;;2269319;62;30204;-75
2022/01/15 15:17:57;;;;;;;2.20;2.10;;;15.00;80.40;;;;;;2276964;62;30327;-74
2022/01/15 15:20:23;;;;;;;2.10;2.00;;;15.00;80.40;;;;;;2276753;62;30368;-74
2022/01/15 15:22:49;;;;;;;2.50;2.30;;;15.00;80.40;;;;;;2276496;62;30429;-74
2022/01/15 15:25:15;;;;;;;2.00;1.90;;;14.90;80.40;;;;;;2276645;62;30131;-75
2022/01/15 15:27:43;;;;;;;2.13;2.03;;;14.90;80.50;;;;;;2276679;62;30164;-75
2022/01/15 15:30:10;;;;;;;2.47;2.28;;;14.80;80.50;;;;;;2276455;62;30961;-74
2022/01/15 15:32:36;;;;;;;2.50;2.30;;;14.90;80.50;;;;;;2262607;62;30323;-74
2022/01/15 15:35:03;;;;;;;2.25;2.13;;;14.90;80.50;;;;;;2269330;62;30302;-74
2022/01/15 15:37:29;;;;;;;2.50;2.30;;;14.80;80.40;;;;;;2276465;62;30322;-75
2022/01/15 15:39:55;;;;;;;2.20;2.08;;;14.90;80.40;;;;;;2276549;62;30237;-75
2022/01/15 15:42:21;;;;;;;2.17;2.08;;;14.90;80.40;;;;;;2276529;62;30133;-74
2022/01/15 15:44:47;;;;;;;2.47;1.95;;;14.90;80.30;;;;;;2276341;62;30025;-75
2022/01/15 15:47:13;;;;;;;2.50;2.30;;;14.90;80.30;;;;;;2276595;62;30595;-75
2022/01/15 15:49:39;;;;;;;2.30;2.20;;;14.80;80.40;;;;;;2276489;62;32443;-74
2022/01/15 15:52:05;;;;;;;2.58;2.40;;;14.80;80.40;;;;;;2268903;62;32039;-74
2022/01/15 15:54:32;;;;;;;2.33;2.13;;;14.80;80.30;;;;;;2276590;62;30375;-74
2022/01/15 15:56:58;;;;;;;2.25;2.15;;;14.80;80.40;;;;;;2276599;62;30079;-74
2022/01/15 15:59:24;;;;;;;2.33;2.13;;;14.80;80.30;;;;;;2262058;62;30920;-74
2022/01/15 16:01:50;;;;;;;2.33;2.17;;;14.80;80.30;;;;;;2262325;62;30283;-74
2022/01/15 16:04:16;;;;;;;2.58;2.38;;;14.90;80.30;;;;;;2269112;62;30182;-74
2022/01/15 16:06:45;;;;;;;2.10;2.00;;;14.90;80.20;;;;;;2276137;62;30180;-74
2022/01/15 16:09:11;;;;;;;2.20;2.10;;;14.90;80.20;;;;;;2269098;62;30237;-74
2022/01/15 16:11:37;;;;;;;2.30;2.20;;;14.90;80.20;;;;;;2276251;62;30415;-74
2022/01/15 16:14:05;;;;;;;2.03;1.92;;;14.80;80.20;;;;;;2276427;62;30821;-74
2022/01/15 16:16:33;;;;;;;2.30;2.20;;;14.80;80.20;;;;;;2276435;62;30042;-75
2022/01/15 16:18:59;;;;;;;2.50;2.40;;;14.80;80.30;;;;;;2268885;62;30267;-74
2022/01/15 16:21:25;;;;;;;2.25;2.15;;;14.80;80.30;;;;;;2276202;62;30083;-74
2022/01/15 16:23:52;;;;;;;2.40;2.30;;;14.80;80.30;;;;;;2269095;62;30207;-74
2022/01/15 16:26:18;;;;;;;2.55;2.35;;;14.80;80.30;;;;;;2276197;62;30175;-74
2022/01/15 16:28:45;;;;;;;2.58;2.38;;;14.80;80.30;;;;;;2276305;62;30273;-74
2022/01/15 16:31:11;;;;;;;2.10;2.00;;;14.80;80.20;;;;;;2276254;62;31698;-74
2022/01/15 16:33:37;;;;;;;3.45;2.17;;;14.80;80.20;;;;;;2276024;62;29872;-74
2022/01/15 16:36:04;;;;;;;2.58;2.38;;;14.80;80.20;;;;;;2276245;62;30000;-74
2022/01/15 16:38:33;;;;;;;2.50;2.30;;;14.70;80.20;;;;;;2268857;62;31516;-75
2022/01/15 16:41:00;;;;;;;2.35;2.22;;;14.70;80.20;;;;;;2275854;62;30105;-74
2022/01/15 16:43:26;;;;;;;2.33;2.22;;;14.70;80.20;;;;;;2268891;62;30155;-74
2022/01/15 16:45:52;;;;;;;2.40;2.30;;;14.70;80.10;;;;;;2276173;62;30216;-74
2022/01/15 16:48:18;;;;;;;2.50;2.30;;;14.70;80.10;;;;;;2275915;62;30074;-75
2022/01/15 16:50:44;;;;;;;2.78;2.58;;;14.80;80.20;;;;;;2262048;62;30107;-74
2022/01/15 16:53:12;;;;;;;2.40;2.30;;;14.70;80.10;;;;;;2276048;62;30229;-74
2022/01/15 16:55:38;;;;;;;2.67;2.47;;;14.80;80.10;;;;;;2267073;62;32160;-75
2022/01/15 16:58:04;;;;;;;3.75;2.60;;;14.80;80.00;;;;;;2265568;62;30774;-71
2022/01/15 17:00:30;;;;;;;2.72;2.50;;;14.80;80.10;;;;;;2267459;62;30602;-74
2022/01/15 17:02:56;;;;;;;3.95;2.60;;;14.80;80.00;;;;;;2266852;62;30131;-72
2022/01/15 17:05:24;;;;;;;7.00;2.30;;;14.90;80.00;;;;;;2267001;62;30250;-72
2022/01/15 17:07:50;;;;;;;2.40;2.20;;;15.00;80.00;;;;;;2267960;62;30870;-72
2022/01/15 17:10:16;;;;;;;1.83;1.70;;;15.20;80.00;;;;;;2268630;62;30192;-72
2022/01/15 17:12:42;;;;;;;2.85;1.90;;;15.30;80.00;;;;;;2268514;62;30284;-72
2022/01/15 17:15:10;;;;;;;3.00;2.00;;;15.50;79.80;;;;;;2268982;62;30255;-72
2022/01/15 17:17:37;;;;;;;2.60;1.60;;;15.60;79.50;;;;;;2269121;62;30292;-71
2022/01/15 17:20:04;;;;;;;1.90;1.80;;;15.70;79.40;;;;;;2268592;62;30360;-72
2022/01/15 17:22:32;;;;;;;5.45;2.00;;;15.80;79.20;;;;;;2268757;62;30364;-73
2022/01/15 17:24:58;;;;;;;2.03;1.92;;;15.80;79.00;;;;;;2269036;62;30152;-73
2022/01/15 17:27:24;;;;;;;2.00;1.90;;;15.90;78.90;;;;;;2268584;62;30120;-73
2022/01/15 17:29:51;;;;;;;1.98;1.80;;;15.90;78.70;;;;;;2261614;62;31987;-75
2022/01/15 17:32:17;;;;;;;1.85;1.75;;;16.00;78.60;;;;;;2268832;62;30120;-74
2022/01/15 17:34:43;;;;;;;1.83;1.73;;;16.00;78.50;;;;;;2269278;62;30340;-74
2022/01/15 17:37:09;;;;;;;1.85;1.75;;;16.00;78.50;;;;;;2268913;62;30472;-73
2022/01/15 17:39:37;;;;;;;2.10;2.00;;;16.10;78.40;;;;;;2269435;62;30848;-74
2022/01/15 17:42:03;;;;;;;2.00;1.90;;;16.10;78.30;;;;;;2268401;62;30291;-73
2022/01/15 17:44:32;;;;;;;1.80;1.70;;;16.10;78.20;;;;;;2268351;62;30159;-74
2022/01/15 17:46:58;;;;;;;2.15;2.00;;;16.20;78.10;;;;;;2268414;62;30200;-74
2022/01/15 17:49:24;;;;;;;1.65;1.55;;;16.20;78.00;;;;;;2268431;62;30193;-74
2022/01/15 17:51:50;;;;;;;2.00;1.90;;;16.20;78.00;;;;;;2268603;62;30257;-73
2022/01/15 17:54:16;;;;;;;2.00;1.90;;;16.20;77.90;;;;;;2268966;62;30544;-74
2022/01/15 17:56:42;;;;;;;6.70;2.20;;;16.20;77.80;;;;;;2268991;62;30277;-74
2022/01/15 17:59:08;;;;;;;2.92;1.88;;;16.30;77.70;;;;;;2261562;62;30202;-87
2022/01/15 18:01:34;;;;;;;2.05;1.73;;;16.30;77.70;;;;;;2268706;62;30182;-86
2022/01/15 18:03:59;;;;;;;2.33;2.00;;;16.40;77.60;;;;;;2268860;62;30266;-86
2022/01/15 18:06:25;;;;;;;1.85;1.75;;;16.50;77.60;;;;;;2268763;62;30105;-83
2022/01/15 18:08:52;;;;;;;1.75;1.65;;;16.50;77.50;;;;;;2268735;62;30293;-86
2022/01/15 18:11:20;;;;;;;1.92;1.83;;;16.60;77.40;;;;;;2268663;62;30211;-89
2022/01/15 18:13:47;;;;;;;4.93;2.08;;;16.70;77.30;;;;;;2269642;62;30338;-91
2022/01/15 18:16:13;;;;;;;1.83;1.73;;;16.70;77.10;;;;;;2270255;62;30163;-91
2022/01/15 18:18:39;;;;;;;2.15;2.05;;;16.80;77.10;;;;;;2268497;62;30684;-84
2022/01/15 18:21:05;;;;;;;2.05;1.95;;;16.80;77.00;;;;;;2270723;62;30244;-95
2022/01/15 18:23:34;;;;;;;2.05;1.95;;;16.80;76.80;;;;;;2273337;62;29969;-92
2022/01/15 18:26:01;;;;;;;1.88;1.77;;;16.90;76.80;;;;;;2269773;62;30113;-93
2022/01/15 18:28:27;;;;;;;2.17;1.90;;;16.90;76.70;;;;;;2255602;62;30081;-89
2022/01/15 18:30:55;;;;;;;1.92;1.83;;;16.90;76.60;;;;;;2264680;62;30234;-89
2022/01/15 18:33:23;;;;;;;2.35;2.15;;;16.90;76.40;;;;;;2261816;62;30080;-92
2022/01/15 18:35:49;;;;;;;1.90;1.80;;;16.90;76.40;;;;;;2269148;62;30300;-93
2022/01/15 18:38:15;;;;;;;2.10;2.00;;;17.00;76.30;;;;;;2269718;62;30239;-95
2022/01/15 18:40:41;;;;;;;2.53;2.33;;;17.00;76.20;;;;;;2269083;62;29935;-90
2022/01/15 18:43:07;;;;;;;2.88;2.10;;;17.00;76.10;;;;;;2270540;62;30462;-95
2022/01/15 18:45:33;;;;;;;2.63;2.42;;;17.00;76.00;;;;;;2270263;62;30004;-91
2022/01/15 18:47:59;;;;;;;2.70;2.50;;;17.00;75.90;;;;;;2269185;62;30097;-93
2022/01/15 18:50:25;;;;;;;2.55;2.35;;;17.00;75.80;;;;;;2270092;62;30068;-95
2022/01/15 18:52:51;;;;;;;2.85;2.65;;;17.00;75.80;;;;;;2269272;62;30135;-88
2022/01/15 18:55:18;;;;;;;2.75;2.55;;;17.00;75.70;;;;;;2269010;62;29987;-93
2022/01/15 18:57:45;;;;;;;2.80;2.50;;;17.00;75.70;;;;;;2269468;62;30399;-91
2022/01/15 19:00:13;;;;;;;2.88;2.67;;;17.00;75.60;;;;;;2277698;62;30196;-88
2022/01/15 19:02:42;;;;;;;3.10;2.90;;;17.00;75.50;;;;;;2268369;62;30242;-89
2022/01/15 19:05:08;;;;;;;3.13;2.90;;;17.00;75.50;;;;;;2274895;62;30256;-88
2022/01/15 19:07:34;;;;;;;3.70;3.38;;;17.00;75.50;;;;;;2254835;62;30441;-89
2022/01/15 19:10:03;;;;;;;5.07;3.08;;;17.00;75.50;;;;;;2272756;62;30260;-83
2022/01/15 19:12:46;;;;;;;3.38;3.08;;;17.10;75.50;;;;;;2271457;62;30466;-83
2022/01/15 19:15:15;;;;;;;3.38;3.08;;;17.10;75.40;;;;;;2267384;62;31048;-86
2022/01/15 19:17:41;;;;;;;4.50;3.30;;;17.10;75.30;;;;;;2267090;62;30161;-84
2022/01/15 19:20:09;;;;;;;3.53;3.20;;;17.20;75.40;;;;;;2263678;62;30467;-84
2022/01/15 19:22:35;;;;;;;3.53;2.80;;;17.30;75.50;;;;;;2259761;62;30282;-86
2022/01/15 19:25:01;;;;;;;3.17;2.83;;;17.30;75.40;;;;;;2253072;62;30429;-84
2022/01/15 19:27:28;;;;;;;4.53;3.00;;;17.40;75.30;;;;;;2267360;62;30323;-85
2022/01/15 19:29:54;;;;;;;4.30;3.03;;;17.40;75.20;;;;;;2267071;62;30065;-90
2022/01/15 19:32:24;;;;;;;3.55;2.60;;;17.40;75.10;;;;;;2267477;62;30730;-87
2022/01/15 19:34:50;;;;;;;5.75;2.85;;;17.50;75.00;;;;;;2269405;62;30223;-75
2022/01/15 19:37:16;;;;;;;4.18;2.92;;;17.50;74.90;;;;;;2267115;62;30467;-80
2022/01/15 19:39:45;;;;;;;3.20;2.90;;;17.50;74.90;;;;;;2267124;62;30300;-82
2022/01/15 19:42:11;;;;;;;3.22;2.92;;;17.50;74.80;;;;;;2267282;62;30317;-80
2022/01/15 19:44:39;;;;;;;2.78;2.50;;;17.60;74.70;;;;;;2266851;62;30984;-80
2022/01/15 19:47:05;;;;;;;3.40;2.65;;;17.60;74.60;;;;;;2260009;62;30236;-79
2022/01/15 19:49:31;;;;;;;3.25;2.60;;;17.60;74.50;;;;;;2267027;62;31324;-80
2022/01/15 19:51:57;;;;;;;2.63;2.42;;;17.60;74.40;;;;;;2272982;62;30384;-79
2022/01/15 19:54:24;;;;;;;3.50;2.60;;;17.70;74.40;;;;;;2275245;62;30494;-79
2022/01/15 19:56:53;;;;;;;2.67;2.40;;;17.60;74.20;;;;;;2275083;62;30286;-79
2022/01/15 19:59:21;;;;;;;2.58;2.38;;;17.70;74.20;;;;;;2268068;62;30233;-80
2022/01/15 20:01:47;;;;;;;2.75;2.42;;;17.70;74.20;;;;;;2275250;62;30338;-82
2022/01/15 20:04:12;;;;;;;2.45;2.30;;;17.70;74.20;;;;;;2267806;62;30255;-84
2022/01/15 20:06:38;;;;;;;2.72;2.53;;;17.70;74.10;;;;;;2275232;62;30625;-86
2022/01/15 20:09:04;;;;;;;2.88;2.50;;;17.70;74.00;;;;;;2275166;62;30100;-78
2022/01/15 20:11:30;;;;;;;2.67;2.47;;;17.70;74.00;;;;;;2275080;62;30368;-74
2022/01/15 20:13:56;;;;;;;2.50;2.30;;;17.70;74.00;;;;;;2275139;62;30765;-75
2022/01/15 20:16:22;;;;;;;2.65;2.45;;;17.70;73.90;;;;;;2275068;62;30132;-75
2022/01/15 20:18:48;;;;;;;2.78;2.58;;;17.70;73.90;;;;;;2267534;62;30301;-74
2022/01/15 20:21:13;;;;;;;2.55;2.35;;;17.70;74.60;;;;;;2274840;62;30078;-76
2022/01/15 20:23:40;;;;;;;2.67;2.47;;;17.70;73.80;;;;;;2261677;62;31130;-76
2022/01/15 20:26:06;;;;;;;2.60;2.40;;;17.70;74.50;;;;;;2257100;62;30328;-77
2022/01/15 20:28:32;;;;;;;2.75;2.55;;;17.70;73.80;;;;;;2266945;62;31194;-77
2022/01/15 20:30:58;;;;;;;3.25;2.80;;;17.70;73.70;;;;;;2252726;62;30441;-76
2022/01/15 20:33:25;;;;;;;2.80;2.60;;;17.70;73.70;;;;;;2266809;62;30972;-76
2022/01/15 20:35:53;;;;;;;2.72;2.53;;;17.70;73.70;;;;;;2268494;62;30638;-76
2022/01/15 20:38:20;;;;;;;2.90;2.70;;;17.70;73.70;;;;;;2267892;62;30406;-76
2022/01/15 20:40:46;;;;;;;3.15;2.85;;;17.70;73.70;;;;;;2274739;62;30253;-77
2022/01/15 20:43:11;;;;;;;3.10;2.80;;;17.70;74.40;;;;;;2261261;62;30997;-77
2022/01/15 20:45:37;;;;;;;3.13;2.83;;;17.70;73.60;;;;;;2268879;62;30420;-74
2022/01/15 20:48:04;;;;;;;2.75;2.55;;;17.70;73.60;;;;;;2262070;62;30023;-74
2022/01/15 20:50:31;;;;;;;3.67;2.95;;;17.70;73.60;;;;;;2276327;62;30319;-74
2022/01/15 20:52:57;;;;;;;3.03;2.83;;;17.60;73.60;;;;;;2262043;62;30234;-74
2022/01/15 20:55:23;;;;;;;3.40;3.17;;;17.60;73.60;;;;;;2268782;62;30293;-74
2022/01/15 20:57:49;;;;;;;3.03;2.83;;;17.60;73.60;;;;;;2268805;62;30297;-74
2022/01/15 21:00:20;;;;;;;2.90;2.70;;;17.60;73.60;;;;;;2276022;62;30517;-74
2022/01/15 21:02:46;;;;;;;3.25;2.97;;;17.60;73.60;;;;;;2268916;62;30109;-73
2022/01/15 21:05:12;;;;;;;3.45;3.15;;;17.60;73.60;;;;;;2268829;62;30450;-74
2022/01/15 21:07:41;;;;;;;3.80;3.13;;;17.50;73.60;;;;;;2268843;62;30188;-72
2022/01/15 21:10:08;;;;;;;10.38;3.83;;;17.50;73.50;;;;;;2268851;62;30478;-74
2022/01/15 21:12:35;;;;;;;3.30;3.00;;;17.50;73.60;;;;;;2262019;62;30978;-74
2022/01/15 21:15:02;;;;;;;3.70;3.40;;;17.50;73.50;;;;;;2268474;62;31387;-74
2022/01/15 21:17:28;;;;;;;4.53;3.15;;;17.50;73.50;;;;;;2276150;62;30029;-74
2022/01/15 21:19:54;;;;;;;3.92;3.35;;;17.50;73.50;;;;;;2268804;62;30591;-74
2022/01/15 21:22:24;;;;;;;3.72;3.13;;;17.60;73.60;;;;;;2269592;62;31043;-74
2022/01/15 21:24:50;;;;;;;3.20;3.00;;;17.50;73.50;;;;;;2259440;62;31964;-73
2022/01/15 21:27:17;;;;;;;3.63;2.97;;;17.60;73.60;;;;;;2275642;62;30044;-73
2022/01/15 21:29:43;;;;;;;3.85;3.40;;;17.50;73.60;;;;;;2275814;62;30253;-73
2022/01/15 21:32:15;;;;;;;6.15;3.20;;;17.50;73.60;;;;;;2276102;62;30170;-74
2022/01/15 21:34:44;;;;;;;4.78;3.60;;;17.50;73.70;;;;;;2275819;62;31965;-74
2022/01/15 21:37:15;;;;;;;4.05;3.65;;;17.50;73.80;;;;;;2267995;62;30325;-73
2022/01/15 21:39:41;;;;;;;3.92;3.63;;;17.50;73.80;;;;;;2268600;62;30378;-74
2022/01/15 21:42:07;;;;;;;3.85;3.38;;;17.50;73.80;;;;;;2260782;62;32128;-74
2022/01/15 21:44:42;;;;;;;3.60;3.30;;;17.40;73.80;;;;;;2274924;62;30846;-74
2022/01/15 21:47:08;;;;;;;4.22;3.38;;;17.40;73.80;;;;;;2268011;62;32662;-76
2022/01/15 21:49:33;;;;;;;4.90;3.63;;;17.40;73.80;;;;;;2267954;62;30202;-75
2022/01/15 21:52:00;;;;;;;3.85;3.55;;;17.40;73.90;;;;;;2267718;62;30802;-75
2022/01/15 21:54:26;;;;;;;5.30;4.38;;;17.40;73.90;;;;;;2260400;62;30340;-75
2022/01/15 21:56:53;;;;;;;6.55;5.05;;;17.50;73.90;;;;;;2267009;62;30148;-75
2022/01/15 21:59:19;;;;;;;6.22;5.03;;;17.40;73.80;;;;;;2275960;62;30129;-75
2022/01/15 22:01:46;;;;;;;4.65;4.18;;;17.40;73.90;;;;;;2275770;62;32302;-76
2022/01/15 22:04:12;;;;;;;4.88;4.38;;;17.40;73.80;;;;;;2275789;62;31080;-76
2022/01/15 22:06:38;;;;;;;4.82;3.83;;;17.40;73.80;;;;;;2261840;62;30175;-76
2022/01/15 22:09:05;;;;;;;5.40;4.30;;;17.50;73.80;;;;;;2268583;62;30271;-76
2022/01/15 22:11:38;;;;;;;5.50;4.82;;;17.50;73.70;;;;;;2267999;62;31088;-76
2022/01/15 22:14:05;;;;;;;5.18;4.60;;;17.50;73.60;;;;;;2275849;62;30397;-76
2022/01/15 22:16:31;;;;;;;5.68;4.53;;;17.50;73.60;;;;;;2268401;62;30288;-75
2022/01/15 22:18:57;;;;;;;6.78;4.47;;;17.50;73.60;;;;;;2275570;62;30045;-76
2022/01/15 22:21:24;;;;;;;4.88;4.28;;;17.50;73.50;;;;;;2275615;62;30914;-76
2022/01/15 22:23:50;;;;;;;4.85;4.40;;;17.50;73.50;;;;;;2275404;62;30191;-75
2022/01/15 22:26:18;;;;;;;4.55;3.90;;;17.50;73.50;;;;;;2275569;62;30241;-75
2022/01/15 22:28:45;;;;;;;4.85;3.90;;;17.50;73.50;;;;;;2268345;62;30496;-74
2022/01/15 22:31:11;;;;;;;4.28;3.88;;;17.50;73.40;;;;;;2275770;62;31573;-75
2022/01/15 22:33:37;;;;;;;4.32;3.92;;;17.50;73.50;;;;;;2275547;62;30294;-75
2022/01/15 22:36:04;;;;;;;4.38;3.97;;;17.50;73.40;;;;;;2268344;62;30165;-75
2022/01/15 22:38:30;;;;;;;3.90;3.60;;;17.50;73.40;;;;;;2275087;62;30267;-74
2022/01/15 22:40:56;;;;;;;4.45;4.05;;;17.50;73.50;;;;;;2275789;62;31050;-75
2022/01/15 22:43:22;;;;;;;3.95;3.65;;;17.50;73.50;;;;;;2275645;62;30503;-75
2022/01/15 22:45:51;;;;;;;3.88;3.58;;;17.50;73.50;;;;;;2268157;62;30327;-75
2022/01/15 22:48:18;;;;;;;4.47;4.03;;;17.50;73.60;;;;;;2272677;62;30383;-75
2022/01/15 22:50:44;;;;;;;3.70;3.40;;;17.50;73.50;;;;;;2260476;62;30148;-76
2022/01/15 22:53:11;;;;;;;3.90;3.60;;;17.50;73.50;;;;;;2267235;62;30962;-76
2022/01/15 22:55:36;;;;;;;3.88;3.58;;;17.50;73.40;;;;;;2272552;62;30341;-75
2022/01/15 22:58:02;;;;;;;4.25;3.75;;;17.50;73.40;;;;;;2275701;62;30105;-76
2022/01/15 23:00:42;;;;;;;4.68;4.28;;;17.40;73.40;;;;;;2275056;62;31886;-76
2022/01/15 23:03:12;;;;;;;4.82;4.38;;;17.40;73.20;;;;;;2275751;62;30140;-74
2022/01/15 23:05:43;;;;;;;5.75;4.35;;;17.40;73.30;;;;;;2267937;62;30283;-76
2022/01/15 23:08:09;;;;;;;4.32;3.92;;;17.30;73.80;;;;;;2270857;62;30537;-75
2022/01/15 23:10:43;;;;;;;4.30;3.90;;;17.30;73.60;;;;;;2275606;62;30168;-75
2022/01/15 23:13:16;;;;;;;5.30;4.35;;;17.30;73.70;;;;;;2262243;62;30197;-75
2022/01/15 23:18:09;;;;;;;4.70;4.30;;;17.30;73.60;;;;;;2268084;62;30441;-75
2022/01/15 23:20:35;;;;;;;4.93;4.50;;;17.30;73.60;;;;;;2275213;62;30924;-74
2022/01/15 23:23:01;;;;;;;4.70;4.30;;;17.30;73.60;;;;;;2273700;62;30638;-76
2022/01/15 23:25:27;;;;;;;5.63;4.60;;;17.30;73.50;;;;;;2260222;62;30596;-77
2022/01/15 23:27:53;;;;;;;5.13;4.60;;;17.30;73.60;;;;;;2267006;62;30346;-76
2022/01/15 23:30:19;;;;;;;5.75;5.15;;;17.30;73.50;;;;;;2259856;62;30999;-76
2022/01/15 23:32:45;;;;;;;5.10;4.70;;;17.30;73.50;;;;;;2260023;62;30541;-75
2022/01/15 23:35:11;;;;;;;5.30;4.80;;;17.30;73.50;;;;;;2267233;62;30237;-75
2022/01/15 23:37:38;;;;;;;6.32;5.72;;;17.30;73.50;;;;;;2267139;62;30076;-76
2022/01/15 23:40:07;;;;;;;5.88;5.30;;;17.30;73.50;;;;;;2267123;62;31138;-75
2022/01/15 23:42:40;;;;;;;5.97;5.38;;;17.30;73.50;;;;;;2267025;62;30195;-75
2022/01/15 23:45:15;;;;;;;6.15;5.55;;;17.30;73.40;;;;;;2273365;62;30052;-75
2022/01/15 23:47:41;;;;;;;6.15;5.55;;;17.30;73.40;;;;;;2266791;62;30309;-75
2022/01/15 23:50:08;;;;;;;6.63;5.82;;;17.30;73.40;;;;;;2267063;62;31366;-75
2022/01/15 23:52:33;;;;;;;6.63;5.72;;;17.30;73.30;;;;;;2267113;62;30177;-75
2022/01/15 23:54:59;;;;;;;5.97;5.40;;;17.30;73.30;;;;;;2267079;62;30062;-75
2022/01/15 23:57:25;;;;;;;7.30;6.55;;;17.30;73.30;;;;;;2269559;62;30691;-75
2022/01/15 23:59:57;;;;;;;7.53;6.65;;;17.30;73.30;;;;;;2267765;62;32285;-74
